createdAt,value
2019-01-10T00:00:30.630Z,1.60
2019-01-10T00:02:59.894Z,1.20
2019-01-10T00:05:29.189Z,1.23
2019-01-10T00:07:58.459Z,1.80
2019-01-10T00:10:27.781Z,1.70
2019-01-10T00:12:57.016Z,1.97
2019-01-10T00:15:26.276Z,1.33
2019-01-10T00:17:55.520Z,1.50
2019-01-10T00:20:24.810Z,1.67
2019-01-10T00:22:54.037Z,1.40
2019-01-10T00:25:23.350Z,1.67
2019-01-10T00:27:52.619Z,1.37
2019-01-10T00:30:22.079Z,1.83
2019-01-10T00:32:51.307Z,1.50
2019-01-10T00:35:20.555Z,1.50
2019-01-10T00:37:49.797Z,1.43
2019-01-10T00:40:20.265Z,1.73
2019-01-10T00:42:50.064Z,2.03
2019-01-10T00:45:19.384Z,1.27
2019-01-10T00:47:48.644Z,1.57
2019-01-10T00:50:20.176Z,1.30
2019-01-10T00:52:49.453Z,1.30
2019-01-10T00:55:18.683Z,1.60
2019-01-10T00:57:47.929Z,1.70
2019-01-10T01:00:20.215Z,1.43
2019-01-10T01:02:49.548Z,1.47
2019-01-10T01:05:19.212Z,1.63
2019-01-10T01:07:48.553Z,1.93
2019-01-10T01:10:20.201Z,1.77
2019-01-10T01:12:58.052Z,1.93
2019-01-10T01:15:20.526Z,1.20
2019-01-10T01:17:49.774Z,1.60
2019-01-10T01:20:21.514Z,1.70
2019-01-10T01:22:50.825Z,1.70
2019-01-10T01:25:20.090Z,1.87
2019-01-10T01:27:49.330Z,1.90
2019-01-10T01:30:23.672Z,1.80
2019-01-10T01:32:53.165Z,1.87
2019-01-10T01:35:22.384Z,2.00
2019-01-10T01:37:51.643Z,1.93
2019-01-10T01:40:21.495Z,1.70
2019-01-10T01:42:50.830Z,1.77
2019-01-10T01:45:20.740Z,1.87
2019-01-10T01:47:50.493Z,2.13
2019-01-10T01:50:24.359Z,2.30
2019-01-10T01:52:53.799Z,2.50
2019-01-10T01:55:23.024Z,2.40
2019-01-10T01:57:52.284Z,2.13
2019-01-10T02:00:23.450Z,2.40
2019-01-10T02:02:52.699Z,2.27
2019-01-10T02:05:21.952Z,2.27
2019-01-10T02:07:51.530Z,2.33
2019-01-10T02:10:25.468Z,2.40
2019-01-10T02:12:54.800Z,2.10
2019-01-10T02:15:24.157Z,1.87
2019-01-10T02:17:53.419Z,2.00
2019-01-10T02:20:22.773Z,2.27
2019-01-10T02:22:52.034Z,2.07
2019-01-10T02:25:21.277Z,1.93
2019-01-10T02:27:50.527Z,2.30
2019-01-10T02:30:22.416Z,1.90
2019-01-10T02:32:51.637Z,1.90
2019-01-10T02:35:20.975Z,1.60
2019-01-10T02:37:50.333Z,1.80
2019-01-10T02:40:19.566Z,1.80
2019-01-10T02:42:48.835Z,1.80
2019-01-10T02:45:18.165Z,2.07
2019-01-10T02:47:47.389Z,2.20
2019-01-10T02:50:18.949Z,2.00
2019-01-10T02:52:48.187Z,1.97
2019-01-10T02:55:17.541Z,2.10
2019-01-10T02:57:46.795Z,2.33
2019-01-10T03:00:19.143Z,2.30
2019-01-10T03:02:48.493Z,2.00
2019-01-10T03:05:17.999Z,2.37
2019-01-10T03:07:47.234Z,2.20
2019-01-10T03:10:21.734Z,2.37
2019-01-10T03:12:51.094Z,2.20
2019-01-10T03:15:20.329Z,2.10
2019-01-10T03:17:49.564Z,2.20
2019-01-10T03:20:21.048Z,2.30
2019-01-10T03:22:50.369Z,2.10
2019-01-10T03:25:19.691Z,1.83
2019-01-10T03:27:48.925Z,2.03
2019-01-10T03:30:19.465Z,2.00
2019-01-10T03:32:48.699Z,2.17
2019-01-10T03:35:17.951Z,1.80
2019-01-10T03:37:47.192Z,2.20
2019-01-10T03:40:18.884Z,2.13
2019-01-10T03:42:48.156Z,2.33
2019-01-10T03:45:19.094Z,2.10
2019-01-10T03:47:48.421Z,2.10
2019-01-10T03:50:18.216Z,2.33
2019-01-10T03:52:47.447Z,2.07
2019-01-10T03:55:16.787Z,1.97
2019-01-10T03:57:46.019Z,2.03
2019-01-10T04:00:20.749Z,2.10
2019-01-10T04:02:50.122Z,2.07
2019-01-10T04:05:19.484Z,1.83
2019-01-10T04:07:48.728Z,2.30
2019-01-10T04:10:18.359Z,2.00
2019-01-10T04:12:47.643Z,2.10
2019-01-10T04:15:17.468Z,2.37
2019-01-10T04:17:46.685Z,2.43
2019-01-10T04:20:17.441Z,2.30
2019-01-10T04:22:46.756Z,2.50
2019-01-10T04:25:16.218Z,2.50
2019-01-10T04:27:45.450Z,2.73
2019-01-10T04:30:18.782Z,2.83
2019-01-10T04:32:48.112Z,2.87
2019-01-10T04:35:17.441Z,2.77
2019-01-10T04:37:46.778Z,2.80
2019-01-10T04:40:18.134Z,3.37
2019-01-10T04:42:47.584Z,4.00
2019-01-10T04:45:16.920Z,2.77
2019-01-10T04:47:46.142Z,2.90
2019-01-10T04:50:16.332Z,3.50
2019-01-10T04:52:45.578Z,3.57
2019-01-10T04:55:14.945Z,3.40
2019-01-10T04:57:44.208Z,4.03
2019-01-10T05:00:19.020Z,4.17
2019-01-10T05:02:48.280Z,3.33
2019-01-10T05:05:17.518Z,3.70
2019-01-10T05:07:46.779Z,3.67
2019-01-10T05:10:16.135Z,3.50
2019-01-10T05:12:45.390Z,3.73
2019-01-10T05:15:16.240Z,4.10
2019-01-10T05:17:45.494Z,4.43
2019-01-10T05:20:17.007Z,4.03
2019-01-10T05:22:46.750Z,3.53
2019-01-10T05:25:15.995Z,3.30
2019-01-10T05:27:45.271Z,4.20
2019-01-10T05:30:22.425Z,4.23
2019-01-10T05:32:51.706Z,4.00
2019-01-10T05:35:20.956Z,4.13
2019-01-10T05:37:50.232Z,3.80
2019-01-10T05:40:19.488Z,4.50
2019-01-10T05:42:48.760Z,4.13
2019-01-10T05:45:18.845Z,3.90
2019-01-10T05:47:48.118Z,4.33
2019-01-10T05:50:18.341Z,4.50
2019-01-10T05:52:47.727Z,4.30
2019-01-10T05:55:18.589Z,4.07
2019-01-10T05:57:47.854Z,4.33
2019-01-10T06:00:20.191Z,4.30
2019-01-10T06:02:49.439Z,4.20
2019-01-10T06:05:18.861Z,4.83
2019-01-10T06:07:48.086Z,4.80
2019-01-10T06:10:22.948Z,4.73
2019-01-10T06:12:52.183Z,4.77
2019-01-10T06:15:21.544Z,4.73
2019-01-10T06:17:50.798Z,4.60
2019-01-10T06:20:22.426Z,4.93
2019-01-10T06:22:51.664Z,5.20
2019-01-10T06:25:20.919Z,5.00
2019-01-10T06:27:50.171Z,5.63
2019-01-10T06:30:21.443Z,4.80
2019-01-10T06:32:50.677Z,4.70
2019-01-10T06:35:19.952Z,4.00
2019-01-10T06:37:49.182Z,5.07
2019-01-10T06:40:21.806Z,4.13
2019-01-10T06:42:51.119Z,4.17
2019-01-10T06:45:20.454Z,4.80
2019-01-10T06:47:49.709Z,4.20
2019-01-10T06:50:18.999Z,4.40
2019-01-10T06:52:48.337Z,4.60
2019-01-10T06:55:17.609Z,4.23
2019-01-10T06:57:46.825Z,4.63
2019-01-10T07:00:21.462Z,4.30
2019-01-10T07:02:50.778Z,4.07
2019-01-10T07:05:20.037Z,4.13
2019-01-10T07:07:56.186Z,4.13
2019-01-10T07:10:23.207Z,4.10
2019-01-10T07:12:52.508Z,5.20
2019-01-10T07:15:21.708Z,5.10
2019-01-10T07:17:50.962Z,3.83
2019-01-10T07:20:20.371Z,4.17
2019-01-10T07:22:51.537Z,4.27
2019-01-10T07:25:20.864Z,4.00
2019-01-10T07:27:50.124Z,4.53
2019-01-10T07:30:22.205Z,3.90
2019-01-10T07:32:51.441Z,3.90
2019-01-10T07:35:20.693Z,3.80
2019-01-10T07:37:52.194Z,3.60
2019-01-10T07:40:21.427Z,3.60
2019-01-10T07:42:51.014Z,2.90
2019-01-10T07:45:22.601Z,3.10
2019-01-10T07:47:51.829Z,3.40
2019-01-10T07:50:25.628Z,3.30
2019-01-10T07:52:54.882Z,3.87
2019-01-10T07:55:24.155Z,4.03
2019-01-10T07:57:53.415Z,3.73
2019-01-10T08:00:22.637Z,3.60
2019-01-10T08:02:51.931Z,3.97
2019-01-10T08:05:21.209Z,4.00
2019-01-10T08:07:50.570Z,4.07
2019-01-10T08:10:20.199Z,4.27
2019-01-10T08:12:49.465Z,3.77
2019-01-10T08:15:21.239Z,3.80
2019-01-10T08:17:50.477Z,3.60
2019-01-10T08:20:19.765Z,3.40
2019-01-10T08:22:49.037Z,3.30
2019-01-10T08:25:22.221Z,3.17
2019-01-10T08:27:51.576Z,3.43
2019-01-10T08:30:22.247Z,3.90
2019-01-10T08:32:51.828Z,3.23
2019-01-10T08:35:22.962Z,3.53
2019-01-10T08:37:52.210Z,3.90
2019-01-10T08:40:21.445Z,4.80
2019-01-10T08:42:50.692Z,4.40
2019-01-10T08:45:21.840Z,4.45
2019-01-10T08:47:50.956Z,4.40
2019-01-10T08:50:23.107Z,4.90
2019-01-10T08:52:52.365Z,5.27
2019-01-10T08:55:21.673Z,5.00
2019-01-10T08:57:50.937Z,4.70
2019-01-10T09:00:21.566Z,4.93
2019-01-10T09:02:50.885Z,5.37
2019-01-10T09:05:20.085Z,5.47
2019-01-10T09:07:49.341Z,5.83
2019-01-10T09:10:21.416Z,5.70
2019-01-10T09:12:50.667Z,6.07
2019-01-10T09:15:25.432Z,5.67
2019-01-10T09:17:50.827Z,5.33
2019-01-10T09:20:20.119Z,6.00
2019-01-10T09:22:49.360Z,5.40
2019-01-10T09:25:18.609Z,6.50
2019-01-10T09:27:47.949Z,6.10
2019-01-10T09:30:19.281Z,5.30
2019-01-10T09:32:48.658Z,6.37
2019-01-10T09:35:17.978Z,5.60
2019-01-10T09:37:47.966Z,6.47
2019-01-10T09:40:20.172Z,5.30
2019-01-10T09:42:49.446Z,4.03
2019-01-10T09:45:21.349Z,4.83
2019-01-10T09:47:50.670Z,5.33
2019-01-10T09:50:21.780Z,6.03
2019-01-10T09:52:51.615Z,6.20
2019-01-10T09:55:20.926Z,6.27
2019-01-10T09:57:50.175Z,6.53
2019-01-10T10:00:25.408Z,6.63
2019-01-10T10:02:54.654Z,5.77
2019-01-10T10:05:23.912Z,6.50
2019-01-10T10:07:53.586Z,6.90
2019-01-10T10:10:23.222Z,6.17
2019-01-10T10:12:52.593Z,5.70
2019-01-10T10:15:22.105Z,4.33
2019-01-10T10:17:51.392Z,4.20
2019-01-10T10:20:22.556Z,4.60
2019-01-10T10:22:51.794Z,5.07
2019-01-10T10:25:21.120Z,6.47
2019-01-10T10:27:50.704Z,5.53
2019-01-10T10:30:20.843Z,4.97
2019-01-10T10:32:50.185Z,5.17
2019-01-10T10:35:20.101Z,5.77
2019-01-10T10:37:49.516Z,4.80
2019-01-10T10:40:19.984Z,5.07
2019-01-10T10:42:49.774Z,5.23
2019-01-10T10:45:20.362Z,4.93
2019-01-10T10:47:49.613Z,4.33
2019-01-10T10:50:24.770Z,5.13
2019-01-10T10:52:54.057Z,4.80
2019-01-10T10:55:23.356Z,4.40
2019-01-10T10:57:52.610Z,5.00
2019-01-10T11:00:24.824Z,4.00
2019-01-10T11:02:54.088Z,4.90
2019-01-10T11:05:23.541Z,6.17
2019-01-10T11:07:52.923Z,5.53
2019-01-10T11:10:22.348Z,5.43
2019-01-10T11:12:51.627Z,5.00
2019-01-10T11:15:20.882Z,4.37
2019-01-10T11:17:50.253Z,4.20
2019-01-10T11:20:21.396Z,4.97
2019-01-10T11:22:50.817Z,4.67
2019-01-10T11:25:22.252Z,3.80
2019-01-10T11:27:51.594Z,4.40
2019-01-10T11:30:21.241Z,3.40
2019-01-10T11:32:50.485Z,4.23
2019-01-10T11:35:19.730Z,3.77
2019-01-10T11:37:48.986Z,4.43
2019-01-10T11:40:20.706Z,3.50
2019-01-10T11:42:50.070Z,4.00
2019-01-10T11:45:23.103Z,4.17
2019-01-10T11:47:52.343Z,3.13
2019-01-10T11:50:21.767Z,3.07
2019-01-10T11:52:51.049Z,4.03
2019-01-10T11:55:20.306Z,3.80
2019-01-10T11:57:49.540Z,3.43
2019-01-10T12:00:24.325Z,4.13
2019-01-10T12:02:56.168Z,3.60
2019-01-10T12:05:25.627Z,3.20
2019-01-10T12:07:54.890Z,4.40
2019-01-10T12:10:24.198Z,3.77
2019-01-10T12:12:53.581Z,4.17
2019-01-10T12:15:22.989Z,3.93
2019-01-10T12:17:52.226Z,3.83
2019-01-10T12:20:21.486Z,3.70
2019-01-10T12:22:50.730Z,4.07
2019-01-10T12:25:20.369Z,3.90
2019-01-10T12:27:49.750Z,3.60
2019-01-10T12:30:23.626Z,2.87
2019-01-10T12:32:52.934Z,4.20
2019-01-10T12:35:22.172Z,3.80
2019-01-10T12:37:51.482Z,3.63
2019-01-10T12:40:20.742Z,3.83
2019-01-10T12:42:49.988Z,4.07
2019-01-10T12:45:20.998Z,3.70
2019-01-10T12:47:50.327Z,3.30
2019-01-10T12:50:21.925Z,3.20
2019-01-10T12:52:51.235Z,3.80
2019-01-10T12:55:20.472Z,3.30
2019-01-10T12:57:49.815Z,3.63
2019-01-10T13:00:21.476Z,3.40
2019-01-10T13:02:50.911Z,3.60
2019-01-10T13:05:20.238Z,3.97
2019-01-10T13:07:49.495Z,4.57
2019-01-10T13:10:19.493Z,3.87
2019-01-10T13:12:49.142Z,3.83
2019-01-10T13:15:25.767Z,4.80
2019-01-10T13:17:55.024Z,3.93
2019-01-10T13:20:24.276Z,4.50
2019-01-10T13:22:53.625Z,4.33
2019-01-10T13:25:22.878Z,4.53
2019-01-10T13:27:52.235Z,4.03
2019-01-10T13:30:23.170Z,3.80
2019-01-10T13:32:53.081Z,3.97
2019-01-10T13:35:22.337Z,4.30
2019-01-10T13:37:51.709Z,4.20
2019-01-10T13:40:21.047Z,3.77
2019-01-10T13:42:50.359Z,3.53
2019-01-10T13:45:20.169Z,4.13
2019-01-10T13:47:49.702Z,4.23
2019-01-10T13:50:24.211Z,4.40
2019-01-10T13:52:53.631Z,4.80
2019-01-10T13:55:23.012Z,3.93
2019-01-10T13:57:55.710Z,4.63
2019-01-10T14:00:32.140Z,5.13
2019-01-10T14:03:00.056Z,5.17
2019-01-10T14:05:29.343Z,5.87
2019-01-10T14:07:58.683Z,5.23
2019-01-10T14:10:27.961Z,4.90
2019-01-10T14:12:57.279Z,5.70
2019-01-10T14:15:29.103Z,5.70
2019-01-10T14:17:58.360Z,5.87
2019-01-10T14:20:27.642Z,6.80
2019-01-10T14:22:56.895Z,5.97
2019-01-10T14:25:26.437Z,6.83
2019-01-10T14:27:59.579Z,7.23
2019-01-10T14:30:35.246Z,6.53
2019-01-10T14:33:04.531Z,6.47
2019-01-10T14:35:33.773Z,7.60
2019-01-10T14:38:03.017Z,7.50
2019-01-10T14:40:32.518Z,6.20
2019-01-10T14:43:01.768Z,5.90
2019-01-10T14:45:31.409Z,6.47
2019-01-10T14:48:02.081Z,5.87
2019-01-10T14:50:31.563Z,5.60
2019-01-10T14:53:00.870Z,5.53
2019-01-10T14:55:30.285Z,4.87
2019-01-10T14:57:59.712Z,5.30
2019-01-10T15:00:29.060Z,5.20
2019-01-10T15:02:58.350Z,4.80
2019-01-10T15:05:27.599Z,4.67
2019-01-10T15:07:57.714Z,4.30
2019-01-10T15:10:27.078Z,4.47
2019-01-10T15:12:56.308Z,4.70
2019-01-10T15:15:25.590Z,4.53
2019-01-10T15:17:54.853Z,4.27
2019-01-10T15:20:26.666Z,4.10
2019-01-10T15:22:55.992Z,4.83
2019-01-10T15:25:25.256Z,4.27
2019-01-10T15:27:54.480Z,5.13
2019-01-10T15:30:25.635Z,4.70
2019-01-10T15:32:55.258Z,5.43
2019-01-10T15:35:24.709Z,5.87
2019-01-10T15:37:53.996Z,4.80
2019-01-10T15:40:26.129Z,4.10
2019-01-10T15:42:55.466Z,5.10
2019-01-10T15:45:24.980Z,4.40
2019-01-10T15:47:54.260Z,4.00
2019-01-10T15:50:23.487Z,3.97
2019-01-10T15:52:52.716Z,3.97
2019-01-10T15:55:22.680Z,4.27
2019-01-10T15:57:52.813Z,4.20
2019-01-10T16:00:25.557Z,3.83
2019-01-10T16:02:54.793Z,3.73
2019-01-10T16:05:24.161Z,3.50
2019-01-10T16:07:53.403Z,4.63
2019-01-10T16:10:22.650Z,5.90
2019-01-10T16:12:51.912Z,5.90
2019-01-10T16:15:22.997Z,5.90
2019-01-10T16:17:52.355Z,4.90
2019-01-10T16:20:21.612Z,3.93
2019-01-10T16:22:50.950Z,4.77
2019-01-10T16:25:20.815Z,4.17
2019-01-10T16:27:50.036Z,4.87
2019-01-10T16:30:24.314Z,5.33
2019-01-10T16:32:53.630Z,5.97
2019-01-10T16:35:22.917Z,6.23
2019-01-10T16:37:52.167Z,6.00
2019-01-10T16:40:21.565Z,6.33
2019-01-10T16:42:50.907Z,8.00
2019-01-10T16:45:25.417Z,8.50
2019-01-10T16:47:54.755Z,8.47
2019-01-10T16:50:24.082Z,8.40
2019-01-10T16:52:53.299Z,9.30
2019-01-10T16:55:22.554Z,8.60
2019-01-10T16:57:51.823Z,10.73
2019-01-10T17:00:26.602Z,9.30
2019-01-10T17:02:55.846Z,8.90
2019-01-10T17:05:25.082Z,8.73
2019-01-10T17:07:54.351Z,9.30
2019-01-10T17:10:23.641Z,8.13
2019-01-10T17:12:52.898Z,8.90
2019-01-10T17:15:22.195Z,64.90
2019-01-10T17:17:51.446Z,19.13
2019-01-10T17:20:25.418Z,15.13
2019-01-10T17:22:54.680Z,12.30
2019-01-10T17:25:24.051Z,11.70
2019-01-10T17:27:53.305Z,12.00
2019-01-10T17:30:27.068Z,11.40
2019-01-10T17:32:56.325Z,11.67
2019-01-10T17:35:27.809Z,13.00
2019-01-10T17:37:57.323Z,11.23
2019-01-10T17:40:26.574Z,10.50
2019-01-10T17:42:55.982Z,11.83
2019-01-10T17:45:30.360Z,17.77
2019-01-10T17:47:59.662Z,21.97
2019-01-10T17:50:29.016Z,23.53
2019-01-10T17:52:58.235Z,39.77
2019-01-10T17:55:27.535Z,27.17
2019-01-10T17:57:56.901Z,25.87
2019-01-10T18:00:28.371Z,19.30
2019-01-10T18:02:57.768Z,47.00
2019-01-10T18:05:27.326Z,19.97
2019-01-10T18:07:56.587Z,17.10
2019-01-10T18:10:25.863Z,29.70
2019-01-10T18:12:55.148Z,23.77
2019-01-10T18:15:25.453Z,24.77
2019-01-10T18:17:54.846Z,29.60
2019-01-10T18:20:36.140Z,21.23
2019-01-10T18:23:05.950Z,31.13
2019-01-10T18:25:35.239Z,25.43
2019-01-10T18:28:04.780Z,23.17
2019-01-10T18:30:34.042Z,22.33
2019-01-10T18:33:03.458Z,34.37
2019-01-10T18:35:32.799Z,23.57
2019-01-10T18:38:02.051Z,17.00
2019-01-10T18:40:31.354Z,15.47
2019-01-10T18:43:00.620Z,13.13
2019-01-10T18:45:30.950Z,23.93
2019-01-10T18:48:00.235Z,24.57
2019-01-10T18:50:29.685Z,22.77
2019-01-10T18:52:58.925Z,16.57
2019-01-10T18:55:29.040Z,14.20
2019-01-10T18:57:58.432Z,12.80
2019-01-10T19:00:30.765Z,13.30
2019-01-10T19:03:00.544Z,13.23
2019-01-10T19:05:30.082Z,12.93
2019-01-10T19:07:59.319Z,14.73
2019-01-10T19:10:28.664Z,14.37
2019-01-10T19:12:58.012Z,11.00
2019-01-10T19:15:27.382Z,10.73
2019-01-10T19:18:03.151Z,11.13
2019-01-10T19:20:28.113Z,13.60
2019-01-10T19:22:57.955Z,14.13
2019-01-10T19:25:27.186Z,22.63
2019-01-10T19:27:56.469Z,38.83
2019-01-10T19:30:27.924Z,18.67
2019-01-10T19:32:57.274Z,20.07
2019-01-10T19:35:26.546Z,16.17
2019-01-10T19:37:55.926Z,17.57
2019-01-10T19:40:25.483Z,15.57
2019-01-10T19:42:54.726Z,21.60
2019-01-10T19:45:24.099Z,16.97
2019-01-10T19:47:53.424Z,17.23
2019-01-10T19:50:24.571Z,18.23
2019-01-10T19:52:53.858Z,16.30
2019-01-10T19:55:27.644Z,17.43
2019-01-10T19:57:59.323Z,18.60
2019-01-10T20:00:37.424Z,19.70
2019-01-10T20:03:06.732Z,21.47
2019-01-10T20:05:36.066Z,20.93
2019-01-10T20:08:05.377Z,22.07
2019-01-10T20:10:34.659Z,26.33
2019-01-10T20:13:03.995Z,27.63
2019-01-10T20:15:33.256Z,28.00
2019-01-10T20:18:02.707Z,28.10
2019-01-10T20:20:37.121Z,28.53
2019-01-10T20:23:07.558Z,28.83
2019-01-10T20:25:37.827Z,28.60
2019-01-10T20:28:07.928Z,29.00
2019-01-10T20:30:37.220Z,29.40
2019-01-10T20:33:06.558Z,29.03
2019-01-10T20:35:36.002Z,27.00
2019-01-10T20:38:05.572Z,27.33
2019-01-10T20:40:34.822Z,29.90
2019-01-10T20:43:04.184Z,32.60
2019-01-10T20:45:33.441Z,31.63
2019-01-10T20:48:02.708Z,33.80
2019-01-10T20:50:32.067Z,30.53
2019-01-10T20:53:01.347Z,31.97
2019-01-10T20:55:30.607Z,29.10
2019-01-10T20:57:59.852Z,30.23
2019-01-10T21:00:29.907Z,31.40
2019-01-10T21:02:59.225Z,29.10
2019-01-10T21:05:28.555Z,28.17
2019-01-10T21:07:57.903Z,27.87
2019-01-10T21:10:27.225Z,26.67
2019-01-10T21:12:56.507Z,26.23
2019-01-10T21:15:28.159Z,28.60
2019-01-10T21:17:57.424Z,27.17
2019-01-10T21:20:26.784Z,28.03
2019-01-10T21:22:57.008Z,28.80
2019-01-10T21:25:26.367Z,29.07
2019-01-10T21:27:55.647Z,26.97
2019-01-10T21:30:25.102Z,28.83
2019-01-10T21:32:54.359Z,28.13
2019-01-10T21:35:23.621Z,25.40
2019-01-10T21:37:52.912Z,28.57
2019-01-10T21:40:23.753Z,25.03
2019-01-10T21:42:53.669Z,27.70
2019-01-10T21:45:23.814Z,26.40
2019-01-10T21:47:53.194Z,26.97
2019-01-10T21:50:25.207Z,27.97
2019-01-10T21:52:54.539Z,26.97
2019-01-10T21:55:23.887Z,27.80
2019-01-10T21:57:53.194Z,26.73
2019-01-10T22:00:27.900Z,28.03
2019-01-10T22:02:57.272Z,26.73
2019-01-10T22:05:26.606Z,27.63
2019-01-10T22:07:55.860Z,28.80
2019-01-10T22:10:25.091Z,28.50
2019-01-10T22:12:54.391Z,28.93
2019-01-10T22:15:23.632Z,29.90
2019-01-10T22:17:52.892Z,28.87
2019-01-10T22:20:23.735Z,29.67
2019-01-10T22:22:52.970Z,29.80
2019-01-10T22:25:22.271Z,28.53
2019-01-10T22:27:51.707Z,29.77
2019-01-10T22:30:22.610Z,27.27
2019-01-10T22:32:51.862Z,30.40
2019-01-10T22:35:22.433Z,28.33
2019-01-10T22:37:52.180Z,27.60
2019-01-10T22:40:22.825Z,29.13
2019-01-10T22:42:52.359Z,30.27
2019-01-10T22:45:21.926Z,30.70
2019-01-10T22:47:51.193Z,28.33
2019-01-10T22:50:21.501Z,27.07
2019-01-10T22:52:50.948Z,27.70
2019-01-10T22:55:20.417Z,27.93
2019-01-10T22:57:49.798Z,27.00
2019-01-10T23:01:00.076Z,29.37
2019-01-10T23:03:32.045Z,26.63
2019-01-10T23:06:01.288Z,25.90
2019-01-10T23:08:30.612Z,27.53
2019-01-10T23:10:59.941Z,25.53
2019-01-10T23:13:29.224Z,26.40
2019-01-10T23:15:59.334Z,27.20
2019-01-10T23:18:28.597Z,25.00
2019-01-10T23:20:59.338Z,27.13
2019-01-10T23:23:28.676Z,25.10
2019-01-10T23:25:57.996Z,27.50
2019-01-10T23:28:27.261Z,25.63
2019-01-10T23:30:58.887Z,26.93
2019-01-10T23:33:28.376Z,26.90
2019-01-10T23:36:00.118Z,25.27
2019-01-10T23:38:29.411Z,27.80
2019-01-10T23:40:59.500Z,27.00
2019-01-10T23:43:28.820Z,25.20
2019-01-10T23:45:58.198Z,25.40
2019-01-10T23:48:27.457Z,24.90
2019-01-10T23:50:56.706Z,25.87
2019-01-10T23:53:25.971Z,23.67
2019-01-10T23:55:55.292Z,25.53
2019-01-10T23:58:24.592Z,24.40
